Página principal
METAR-TAF:

METAR-TAF

Aeroportos :

Zanzibar, Tanzânia

latitude: 06-13S, longitude: 039-13E, altura: 15 m

Observação actual do tempo

O boletim foi feito há 33 minutos, às 12:00 UTC
Vento 9 kt de nordeste
Temperatura 29°C
Humidade 58%
Pressão 1013 hPa
Visibilidade 10 km ou mais
Poucas nuvensa uma altura de 2200 ft
Nuvens fragmentadasa uma altura de 8000 ft

METAR: HTZA 301200Z 04009KT 9999 FEW022 BKN080 29/20 Q1013 NOSIG

Hora: 15:33 (12:33 UTC)

Previsão

O boletim foi feito há 1 hora e 33 minutos, às 11:00 UTC
Previsão válida de 30 às 12 UTC a 01 às 12 UTC
Vento 15 kt de es-sudeste
Visibilidade 10 km ou mais
Nuvens dispersasa uma altura de 2200 ft
Tornando-se
de 30 às 20 UTC a 30 às 22 UTC
Vento 10 kt de es-sudeste
Nuvens fragmentadasa uma altura de 1600 ft

TAF: HTZA 301100Z 3012/0112 12015KT 9999 SCT022 BECMG 3020/3022 00000KT BCMG 0103/0105 12010KT BKN016

Observações e previsões do tempo de mais de 4000 aeroportos (mensagens METAR e TAF).

As estações disponíveis são os pontos amarelos e vermelhos sobre o mapa.

Mova o rato sobre o mapa para ver o nome da estação.

Depois clique no ponto para visualizar as observações e previsões meteorológicas.

Para alterar o mapa : clique nos botões verdes com uma cruz preta para aumentar o zoom; no botão verde com uma pitada de zoom; ou nas setas verdes para mapas adjacentes.


METAR-TAF: